createdAt,value
2019-06-08T00:01:16.443Z,20.94
2019-06-08T00:03:47.603Z,20.91
2019-06-08T00:06:18.865Z,20.93
2019-06-08T00:08:49.919Z,20.93
2019-06-08T00:11:21.180Z,20.94
2019-06-08T00:13:52.260Z,20.93
2019-06-08T00:16:23.817Z,20.92
2019-06-08T00:19:01.756Z,20.93
2019-06-08T00:21:32.849Z,20.91
2019-06-08T00:24:03.975Z,20.86
2019-06-08T00:26:35.059Z,20.82
2019-06-08T00:29:06.123Z,20.79
2019-06-08T00:31:37.216Z,20.78
2019-06-08T00:34:08.284Z,20.77
2019-06-08T00:36:39.376Z,20.77
2019-06-08T00:39:10.427Z,20.74
2019-06-08T00:41:41.500Z,20.72
2019-06-08T00:44:12.559Z,20.68
2019-06-08T00:46:43.720Z,20.66
2019-06-08T00:49:14.778Z,20.63
2019-06-08T00:51:45.859Z,20.65
2019-06-08T00:54:17.397Z,20.67
2019-06-08T00:56:48.554Z,20.67
2019-06-08T00:59:19.954Z,20.66
2019-06-08T01:01:51.076Z,20.65
2019-06-08T01:04:22.725Z,20.63
2019-06-08T01:06:53.907Z,20.61
2019-06-08T01:09:26.242Z,20.60
2019-06-08T01:11:57.465Z,20.58
2019-06-08T01:14:29.116Z,20.55
2019-06-08T01:17:00.185Z,20.55
2019-06-08T01:19:32.960Z,20.57
2019-06-08T01:22:04.044Z,20.57
2019-06-08T01:24:36.147Z,20.55
2019-06-08T01:27:07.249Z,20.54
2019-06-08T01:29:38.333Z,20.52
2019-06-08T01:32:09.389Z,20.48
2019-06-08T01:34:40.479Z,20.47
2019-06-08T01:37:11.545Z,20.46
2019-06-08T01:39:50.449Z,20.44
2019-06-08T01:42:21.512Z,20.41
2019-06-08T01:44:52.580Z,20.36
2019-06-08T01:47:24.621Z,20.32
2019-06-08T01:49:55.826Z,20.29
2019-06-08T01:52:33.594Z,20.28
2019-06-08T01:55:06.600Z,20.26
2019-06-08T01:57:37.696Z,20.23
2019-06-08T02:02:42.196Z,20.19
2019-06-08T02:05:16.430Z,20.15
2019-06-08T02:07:47.513Z,20.13
2019-06-08T02:10:19.108Z,20.07
2019-06-08T02:12:50.192Z,20.02
2019-06-08T02:15:21.984Z,19.97
2019-06-08T02:17:53.068Z,19.94
2019-06-08T02:20:28.754Z,19.92
2019-06-08T02:22:59.896Z,19.89
2019-06-08T02:25:31.418Z,19.87
2019-06-08T02:28:02.563Z,19.88
2019-06-08T02:30:37.120Z,19.87
2019-06-08T02:33:07.380Z,19.88
2019-06-08T02:35:45.581Z,19.90
2019-06-08T02:38:16.640Z,19.89
2019-06-08T02:40:47.734Z,19.89
2019-06-08T02:43:18.810Z,19.88
2019-06-08T02:45:49.944Z,19.88
2019-06-08T02:48:21.042Z,19.89
2019-06-08T02:50:57.119Z,19.89
2019-06-08T02:53:29.488Z,19.90
2019-06-08T02:56:02.099Z,19.89
2019-06-08T02:58:37.907Z,19.87
2019-06-08T03:01:08.835Z,19.87
2019-06-08T03:03:46.172Z,19.86
2019-06-08T03:06:20.582Z,19.86
2019-06-08T03:08:52.503Z,19.84
2019-06-08T03:11:23.970Z,19.82
2019-06-08T03:13:58.256Z,19.82
2019-06-08T03:16:31.115Z,19.81
2019-06-08T03:19:19.947Z,19.78
2019-06-08T03:21:37.980Z,19.76
2019-06-08T03:24:08.794Z,19.76
2019-06-08T03:26:41.871Z,19.74
2019-06-08T03:29:12.651Z,19.72
2019-06-08T03:31:54.306Z,19.71
2019-06-08T03:34:16.539Z,19.70
2019-06-08T03:36:55.211Z,19.68
2019-06-08T03:39:20.389Z,19.65
2019-06-08T03:41:51.468Z,19.62
2019-06-08T03:44:22.551Z,19.60
2019-06-08T03:46:53.650Z,19.58
2019-06-08T03:49:41.433Z,19.57
2019-06-08T03:51:57.678Z,19.57
2019-06-08T03:54:28.764Z,19.56
2019-06-08T03:56:59.837Z,19.55
2019-06-08T03:59:30.923Z,19.53
2019-06-08T04:02:02.009Z,19.52
2019-06-08T04:04:33.086Z,19.51
2019-06-08T04:07:04.151Z,19.49
2019-06-08T04:09:35.227Z,19.49
2019-06-08T04:12:06.355Z,19.46
2019-06-08T04:14:39.876Z,19.46
2019-06-08T04:17:11.103Z,19.43
2019-06-08T04:20:05.455Z,19.42
2019-06-08T04:22:14.973Z,19.41
2019-06-08T04:24:46.632Z,19.41
2019-06-08T04:27:17.801Z,19.40
2019-06-08T04:29:50.172Z,19.40
2019-06-08T04:32:21.412Z,19.40
2019-06-08T04:34:52.487Z,19.40
2019-06-08T04:37:23.655Z,19.41
2019-06-08T04:39:54.766Z,19.42
2019-06-08T04:42:25.857Z,19.42
2019-06-08T04:45:07.714Z,19.41
2019-06-08T04:47:40.741Z,19.42
2019-06-08T04:50:22.608Z,19.40
2019-06-08T04:52:44.922Z,19.40
2019-06-08T04:55:16.344Z,19.39
2019-06-08T04:57:48.707Z,19.40
2019-06-08T05:00:21.130Z,19.40
2019-06-08T05:02:52.183Z,19.41
2019-06-08T05:05:23.266Z,19.41
2019-06-08T05:07:54.346Z,19.44
2019-06-08T05:10:25.416Z,19.45
2019-06-08T05:13:02.241Z,19.45
2019-06-08T05:15:33.390Z,19.45
2019-06-08T05:18:04.719Z,19.46
2019-06-08T05:20:39.270Z,19.48
2019-06-08T05:23:08.558Z,19.49
2019-06-08T05:25:39.637Z,19.50
2019-06-08T05:28:10.707Z,19.51
2019-06-08T05:30:47.742Z,19.52
2019-06-08T05:33:18.822Z,19.53
2019-06-08T05:35:49.901Z,19.52
2019-06-08T05:38:20.968Z,19.54
2019-06-08T05:40:52.070Z,19.57
2019-06-08T05:43:23.131Z,19.58
2019-06-08T05:45:54.228Z,19.61
2019-06-08T05:48:25.292Z,19.63
2019-06-08T05:51:03.566Z,19.65
2019-06-08T05:53:29.134Z,19.68
2019-06-08T05:56:00.227Z,19.70
2019-06-08T05:58:31.288Z,19.70
2019-06-08T06:01:02.711Z,19.71
2019-06-08T06:03:33.805Z,19.71
2019-06-08T06:06:04.866Z,19.70
2019-06-08T06:08:35.926Z,19.70
2019-06-08T06:11:07.010Z,19.70
2019-06-08T06:13:38.079Z,19.70
2019-06-08T06:16:09.168Z,19.71
2019-06-08T06:18:41.162Z,19.74
2019-06-08T06:21:12.655Z,19.75
2019-06-08T06:23:45.131Z,19.78
2019-06-08T06:26:16.261Z,19.79
2019-06-08T06:28:47.639Z,19.81
2019-06-08T06:31:18.810Z,19.86
2019-06-08T06:33:50.128Z,19.91
2019-06-08T06:36:21.236Z,19.97
2019-06-08T06:38:52.403Z,20.02
2019-06-08T06:41:23.470Z,20.08
2019-06-08T06:43:54.592Z,20.15
2019-06-08T06:46:25.736Z,20.20
2019-06-08T06:48:56.856Z,20.24
2019-06-08T06:51:28.188Z,20.29
2019-06-08T06:53:59.240Z,20.35
2019-06-08T06:56:30.335Z,20.41
2019-06-08T06:59:01.385Z,20.45
2019-06-08T07:01:32.901Z,20.49
2019-06-08T07:04:04.463Z,20.53
2019-06-08T07:06:35.531Z,20.58
2019-06-08T07:09:07.556Z,20.61
2019-06-08T07:11:38.628Z,20.66
2019-06-08T07:14:09.719Z,20.69
2019-06-08T07:16:40.782Z,20.69
2019-06-08T07:19:11.862Z,20.72
2019-06-08T07:21:42.948Z,20.76
2019-06-08T07:24:14.020Z,20.79
2019-06-08T07:26:46.270Z,20.78
2019-06-08T07:29:17.449Z,20.77
2019-06-08T07:31:49.937Z,20.77
2019-06-08T07:34:21.479Z,20.78
2019-06-08T07:36:55.382Z,20.79
2019-06-08T07:39:26.660Z,20.82
2019-06-08T07:41:57.704Z,20.86
2019-06-08T07:44:28.821Z,20.94
2019-06-08T07:47:00.152Z,21.01
2019-06-08T07:49:31.343Z,21.11
2019-06-08T07:52:10.114Z,21.23
2019-06-08T07:54:35.223Z,21.30
2019-06-08T07:57:06.276Z,21.35
2019-06-08T07:59:37.359Z,21.38
2019-06-08T08:02:08.440Z,21.43
2019-06-08T08:04:39.525Z,21.48
2019-06-08T08:07:10.611Z,21.53
2019-06-08T08:09:41.755Z,21.56
2019-06-08T08:12:12.817Z,21.58
2019-06-08T08:14:43.892Z,21.60
2019-06-08T08:17:15.067Z,21.63
2019-06-08T08:19:46.119Z,21.65
2019-06-08T08:22:22.972Z,21.67
2019-06-08T08:24:52.444Z,21.68
2019-06-08T08:27:22.771Z,21.70
2019-06-08T08:29:53.832Z,21.72
2019-06-08T08:32:24.913Z,21.76
2019-06-08T08:35:05.805Z,21.79
2019-06-08T08:37:38.088Z,21.83
2019-06-08T08:40:09.673Z,21.86
2019-06-08T08:42:40.838Z,21.86
2019-06-08T08:45:12.220Z,21.88
2019-06-08T08:47:43.304Z,21.92
2019-06-08T08:50:14.798Z,21.96
2019-06-08T08:52:47.708Z,21.99
2019-06-08T08:55:20.534Z,22.04
2019-06-08T08:57:52.175Z,22.08
2019-06-08T09:00:24.478Z,22.12
2019-06-08T09:03:16.250Z,22.20
2019-06-08T09:05:28.308Z,22.27
2019-06-08T09:08:02.003Z,22.36
2019-06-08T09:10:32.162Z,22.43
2019-06-08T09:13:04.741Z,22.50
2019-06-08T09:15:37.755Z,22.57
2019-06-08T09:18:08.615Z,22.63
2019-06-08T09:20:39.705Z,22.69
2019-06-08T09:23:16.536Z,22.70
2019-06-08T09:25:48.325Z,22.72
2019-06-08T09:28:18.925Z,22.74
2019-06-08T09:30:49.987Z,22.75
2019-06-08T09:33:21.234Z,22.79
2019-06-08T09:35:53.559Z,22.84
2019-06-08T09:38:25.083Z,22.89
2019-06-08T09:40:59.166Z,22.92
2019-06-08T09:43:29.092Z,22.98
2019-06-08T09:46:02.097Z,23.02
2019-06-08T09:48:32.982Z,23.09
2019-06-08T09:51:05.472Z,23.16
2019-06-08T09:53:40.781Z,23.26
2019-06-08T09:56:10.010Z,23.30
2019-06-08T09:58:41.359Z,23.35
2019-06-08T10:01:12.576Z,23.40
2019-06-08T10:03:43.664Z,23.46
2019-06-08T10:06:14.767Z,23.56
2019-06-08T10:08:47.915Z,23.65
2019-06-08T10:11:18.605Z,23.73
2019-06-08T10:13:49.703Z,23.81
2019-06-08T10:16:20.826Z,23.87
2019-06-08T10:18:55.008Z,23.92
2019-06-08T10:21:28.229Z,23.96
2019-06-08T10:24:00.999Z,23.93
2019-06-08T10:26:31.181Z,23.96
2019-06-08T10:29:04.961Z,23.97
2019-06-08T10:31:39.901Z,23.96
2019-06-08T10:34:10.909Z,23.91
2019-06-08T10:36:41.719Z,23.86
2019-06-08T10:39:12.871Z,23.81
2019-06-08T10:41:45.009Z,23.75
2019-06-08T10:44:18.234Z,23.70
2019-06-08T10:46:48.861Z,23.64
2019-06-08T10:49:20.068Z,23.57
2019-06-08T10:51:51.074Z,23.57
2019-06-08T10:54:22.150Z,23.60
2019-06-08T10:56:53.216Z,23.58
2019-06-08T10:59:24.300Z,23.58
2019-06-08T11:01:55.377Z,23.56
2019-06-08T11:04:28.575Z,23.58
2019-06-08T11:07:05.601Z,23.66
2019-06-08T11:09:32.060Z,23.71
2019-06-08T11:12:03.968Z,23.79
2019-06-08T11:14:38.261Z,23.86
2019-06-08T11:17:10.971Z,23.93
2019-06-08T11:19:41.572Z,23.97
2019-06-08T11:22:14.618Z,24.02
2019-06-08T11:24:45.425Z,24.04
2019-06-08T11:27:18.688Z,24.08
2019-06-08T11:29:49.398Z,24.10
2019-06-08T11:32:20.483Z,24.15
2019-06-08T11:34:51.634Z,24.17
2019-06-08T11:37:22.688Z,24.22
2019-06-08T11:39:53.749Z,24.24
2019-06-08T11:42:27.822Z,24.28
2019-06-08T11:44:58.647Z,24.33
2019-06-08T11:47:30.987Z,24.38
2019-06-08T11:50:06.589Z,24.37
2019-06-08T11:52:38.500Z,24.31
2019-06-08T11:55:13.109Z,24.24
2019-06-08T11:57:44.159Z,24.16
2019-06-08T12:00:27.705Z,24.08
2019-06-08T12:02:57.967Z,24.02
2019-06-08T12:05:29.275Z,23.96
2019-06-08T12:08:02.869Z,23.92
2019-06-08T12:10:33.925Z,23.87
2019-06-08T12:13:05.284Z,23.81
2019-06-08T12:15:38.442Z,23.83
2019-06-08T12:18:11.406Z,23.83
2019-06-08T12:20:42.761Z,23.85
2019-06-08T12:23:14.169Z,23.85
2019-06-08T12:25:45.273Z,23.86
2019-06-08T12:28:17.819Z,23.86
2019-06-08T12:30:49.010Z,23.86
2019-06-08T12:33:22.785Z,23.85
2019-06-08T12:35:52.854Z,23.85
2019-06-08T12:38:23.915Z,23.83
2019-06-08T12:40:54.998Z,23.83
2019-06-08T12:43:28.325Z,23.85
2019-06-08T12:46:00.645Z,23.88
2019-06-08T12:48:31.709Z,23.91
2019-06-08T12:51:02.790Z,23.93
2019-06-08T12:53:33.854Z,23.91
2019-06-08T12:56:05.107Z,23.90
2019-06-08T12:58:38.531Z,23.92
2019-06-08T13:01:09.799Z,24.02
2019-06-08T13:03:41.855Z,24.14
2019-06-08T13:06:14.049Z,24.31
2019-06-08T13:08:47.671Z,24.47
2019-06-08T13:11:19.002Z,24.64
2019-06-08T13:13:50.782Z,24.72
2019-06-08T13:16:24.232Z,24.73
2019-06-08T13:18:54.623Z,24.71
2019-06-08T13:21:34.649Z,24.65
2019-06-08T13:23:58.502Z,24.57
2019-06-08T13:26:31.252Z,24.48
2019-06-08T13:29:02.347Z,24.38
2019-06-08T13:31:33.415Z,24.28
2019-06-08T13:34:04.487Z,24.23
2019-06-08T13:36:35.557Z,24.16
2019-06-08T13:39:09.891Z,24.10
2019-06-08T13:41:40.024Z,24.04
2019-06-08T13:44:11.519Z,23.99
2019-06-08T13:46:42.663Z,23.96
2019-06-08T13:49:14.157Z,23.93
2019-06-08T13:55:36.497Z,23.82
2019-06-08T13:57:51.084Z,23.72
2019-06-08T14:00:38.523Z,23.70
2019-06-08T14:03:10.092Z,23.71
2019-06-08T14:05:41.190Z,23.69
2019-06-08T14:08:12.263Z,23.69
2019-06-08T14:10:43.581Z,23.69
2019-06-08T14:13:15.160Z,23.67
2019-06-08T14:15:54.456Z,23.62
2019-06-08T14:18:29.986Z,23.58
2019-06-08T14:20:59.193Z,23.54
2019-06-08T14:23:30.364Z,23.51
2019-06-08T14:26:01.424Z,23.49
2019-06-08T14:28:34.468Z,23.50
2019-06-08T14:31:08.338Z,23.50
2019-06-08T14:33:38.314Z,23.54
2019-06-08T14:36:09.363Z,23.57
2019-06-08T14:38:42.072Z,23.60
2019-06-08T14:41:13.387Z,23.69
2019-06-08T14:43:44.475Z,23.78
2019-06-08T14:46:15.549Z,23.84
2019-06-08T14:48:46.634Z,23.89
2019-06-08T14:51:18.681Z,23.97
2019-06-08T14:53:49.948Z,24.14
2019-06-08T14:56:21.343Z,24.32
2019-06-08T14:58:52.467Z,24.50
2019-06-08T15:01:25.368Z,24.66
2019-06-08T15:03:58.470Z,24.74
2019-06-08T15:06:33.957Z,24.78
2019-06-08T15:09:01.855Z,24.75
2019-06-08T15:11:35.148Z,24.72
2019-06-08T15:14:08.402Z,24.70
2019-06-08T15:16:41.625Z,24.70
2019-06-08T15:19:11.790Z,24.70
2019-06-08T15:21:42.849Z,24.70
2019-06-08T15:24:13.990Z,24.70
2019-06-08T15:26:48.678Z,24.71
2019-06-08T15:29:20.799Z,24.73
2019-06-08T15:31:51.867Z,24.74
2019-06-08T15:34:23.195Z,24.74
2019-06-08T15:36:54.381Z,24.73
2019-06-08T15:39:26.156Z,24.71
2019-06-08T15:42:00.169Z,24.69
2019-06-08T15:44:32.445Z,24.67
2019-06-08T15:47:03.784Z,24.64
2019-06-08T15:49:34.844Z,24.61
2019-06-08T15:52:05.934Z,24.59
2019-06-08T15:54:40.436Z,24.58
2019-06-08T15:57:09.785Z,24.56
2019-06-08T15:59:41.941Z,24.51
2019-06-08T16:02:13.225Z,24.47
2019-06-08T16:04:44.362Z,24.45
2019-06-08T16:07:16.593Z,24.43
2019-06-08T16:09:47.926Z,24.43
2019-06-08T16:12:18.995Z,24.40
2019-06-08T16:14:50.094Z,24.38
2019-06-08T16:17:21.146Z,24.35
2019-06-08T16:19:53.229Z,24.34
2019-06-08T16:22:25.725Z,24.33
2019-06-08T16:24:56.814Z,24.31
2019-06-08T16:27:28.016Z,24.30
2019-06-08T16:30:00.171Z,24.27
2019-06-08T16:32:31.559Z,24.24
2019-06-08T16:35:02.711Z,24.18
2019-06-08T16:37:33.764Z,24.15
2019-06-08T16:40:08.055Z,24.09
2019-06-08T16:42:39.122Z,24.06
2019-06-08T16:45:11.378Z,24.00
2019-06-08T16:47:43.739Z,23.98
2019-06-08T16:50:24.230Z,23.95
2019-06-08T16:52:47.924Z,23.94
2019-06-08T16:55:19.007Z,23.95
2019-06-08T16:57:50.081Z,23.94
2019-06-08T17:00:40.214Z,23.92
2019-06-08T17:02:54.118Z,23.91
2019-06-08T17:05:25.282Z,23.90
2019-06-08T17:07:56.330Z,23.92
2019-06-08T17:10:27.459Z,23.93
2019-06-08T17:12:58.511Z,23.93
2019-06-08T17:15:30.222Z,23.95
2019-06-08T17:18:02.517Z,23.94
2019-06-08T17:20:34.087Z,23.92
2019-06-08T17:23:05.334Z,23.91
2019-06-08T17:25:36.650Z,23.91
2019-06-08T17:28:07.796Z,23.91
2019-06-08T17:30:39.374Z,23.91
2019-06-08T17:33:10.696Z,23.89
2019-06-08T17:35:42.336Z,23.88
2019-06-08T17:38:13.544Z,23.86
2019-06-08T17:40:44.663Z,23.84
2019-06-08T17:43:15.750Z,23.83
2019-06-08T17:45:46.877Z,23.79
2019-06-08T17:48:17.960Z,23.75
2019-06-08T17:50:50.006Z,23.70
2019-06-08T17:53:21.266Z,23.67
2019-06-08T17:55:52.364Z,23.62
2019-06-08T17:58:23.441Z,23.56
2019-06-08T18:00:54.494Z,23.50
2019-06-08T18:03:27.877Z,23.47
2019-06-08T18:05:59.041Z,23.43
2019-06-08T18:08:30.131Z,23.42
2019-06-08T18:11:01.217Z,23.39
2019-06-08T18:13:32.303Z,23.38
2019-06-08T18:16:03.393Z,23.37
2019-06-08T18:18:34.503Z,23.38
2019-06-08T18:21:07.976Z,23.39
2019-06-08T18:23:40.377Z,23.38
2019-06-08T18:26:11.376Z,23.39
2019-06-08T18:28:44.087Z,23.38
2019-06-08T18:31:15.377Z,23.37
2019-06-08T18:33:50.083Z,23.36
2019-06-08T18:36:19.295Z,23.33
2019-06-08T18:38:50.360Z,23.29
2019-06-08T18:41:21.578Z,23.26
2019-06-08T18:43:53.746Z,23.24
2019-06-08T18:46:27.078Z,23.19
2019-06-08T18:48:58.009Z,23.11
2019-06-08T18:51:29.124Z,22.99
2019-06-08T18:54:11.337Z,22.86
2019-06-08T18:56:32.966Z,22.76
2019-06-08T18:59:04.020Z,22.67
2019-06-08T19:01:38.876Z,22.56
2019-06-08T19:04:09.833Z,22.49
2019-06-08T19:06:42.296Z,22.40
2019-06-08T19:09:13.680Z,22.33
2019-06-08T19:11:46.344Z,22.27
2019-06-08T19:14:17.952Z,22.21
2019-06-08T19:16:54.464Z,22.17
2019-06-08T19:19:23.196Z,22.10
2019-06-08T19:21:54.285Z,22.07
2019-06-08T19:24:25.338Z,22.04
2019-06-08T19:26:57.843Z,22.02
2019-06-08T19:29:29.218Z,21.99
2019-06-08T19:32:00.752Z,21.96
2019-06-08T19:34:33.351Z,21.94
2019-06-08T19:37:04.690Z,21.89
2019-06-08T19:39:35.763Z,21.86
2019-06-08T19:42:07.986Z,21.85
2019-06-08T19:44:44.821Z,21.83
2019-06-08T19:47:11.935Z,21.81
2019-06-08T19:49:43.009Z,21.81
2019-06-08T19:52:14.091Z,21.79
2019-06-08T19:54:47.084Z,21.77
2019-06-08T19:57:17.947Z,21.75
2019-06-08T19:59:49.653Z,21.73
2019-06-08T20:02:20.775Z,21.71
2019-06-08T20:04:53.115Z,21.69
2019-06-08T20:07:24.683Z,21.65
2019-06-08T20:09:57.143Z,21.64
2019-06-08T20:12:28.367Z,21.62
2019-06-08T20:14:59.450Z,21.59
2019-06-08T20:17:30.526Z,21.58
2019-06-08T20:20:01.609Z,21.55
2019-06-08T20:22:32.689Z,21.53
2019-06-08T20:25:09.685Z,21.52
2019-06-08T20:27:37.339Z,21.51
2019-06-08T20:30:12.277Z,21.47
2019-06-08T20:32:44.443Z,21.41
2019-06-08T20:35:17.438Z,21.38
2019-06-08T20:37:49.878Z,21.35
2019-06-08T20:40:21.132Z,21.32
2019-06-08T20:42:54.581Z,21.30
2019-06-08T20:45:24.954Z,21.29
2019-06-08T20:47:58.218Z,21.27
2019-06-08T20:50:28.793Z,21.25
2019-06-08T20:52:59.879Z,21.22
2019-06-08T20:55:30.941Z,21.20
2019-06-08T20:58:08.019Z,21.18
2019-06-08T21:00:38.860Z,21.16
2019-06-08T21:03:09.935Z,21.12
2019-06-08T21:05:41.069Z,21.10
2019-06-08T21:08:12.150Z,21.09
2019-06-08T21:10:44.264Z,21.07
2019-06-08T21:13:17.945Z,21.06
2019-06-08T21:15:52.637Z,21.05
2019-06-08T21:18:21.567Z,21.02
2019-06-08T21:20:53.129Z,21.00
2019-06-08T21:23:24.295Z,20.99
2019-06-08T21:25:59.254Z,20.97
2019-06-08T21:28:28.154Z,20.94
2019-06-08T21:31:02.174Z,20.91
2019-06-08T21:33:32.036Z,20.90
2019-06-08T21:36:05.149Z,20.88
2019-06-08T21:38:37.717Z,20.86
2019-06-08T21:41:08.836Z,20.82
2019-06-08T21:43:41.876Z,20.81
2019-06-08T21:46:12.937Z,20.78
2019-06-08T21:48:44.048Z,20.75
2019-06-08T21:51:15.112Z,20.73
2019-06-08T21:53:48.243Z,20.71
2019-06-08T21:56:18.955Z,20.69
2019-06-08T21:59:00.923Z,20.65
2019-06-08T22:01:32.733Z,20.62
2019-06-08T22:04:04.034Z,20.59
2019-06-08T22:06:37.237Z,20.57
2019-06-08T22:09:09.515Z,20.54
2019-06-08T22:11:40.600Z,20.52
2019-06-08T22:14:11.685Z,20.51
2019-06-08T22:16:42.760Z,20.48
2019-06-08T22:19:13.825Z,20.46
2019-06-08T22:21:44.930Z,20.46
2019-06-08T22:24:17.146Z,20.44
2019-06-08T22:26:48.343Z,20.42
2019-06-08T22:29:19.458Z,20.41
2019-06-08T22:31:52.189Z,20.40
2019-06-08T22:34:23.334Z,20.39
2019-06-08T22:36:54.392Z,20.37
2019-06-08T22:39:27.987Z,20.35
2019-06-08T22:42:00.817Z,20.34
2019-06-08T22:44:30.988Z,20.32
2019-06-08T22:47:03.645Z,20.32
2019-06-08T22:49:38.234Z,20.30
2019-06-08T22:52:08.955Z,20.29
2019-06-08T22:54:40.049Z,20.29
2019-06-08T22:57:11.105Z,20.25
2019-06-08T22:59:42.192Z,20.25
2019-06-08T23:02:13.275Z,20.24
2019-06-08T23:04:44.591Z,20.22
2019-06-08T23:07:26.551Z,20.21
2019-06-08T23:09:48.467Z,20.18
2019-06-08T23:12:19.515Z,20.17
2019-06-08T23:14:50.602Z,20.16
2019-06-08T23:17:21.666Z,20.13
2019-06-08T23:19:52.748Z,20.11
2019-06-08T23:22:23.840Z,20.09
2019-06-08T23:24:55.597Z,20.07
2019-06-08T23:27:27.166Z,20.06
2019-06-08T23:30:00.035Z,20.03
2019-06-08T23:32:31.053Z,20.02
2019-06-08T23:35:02.956Z,19.99
2019-06-08T23:37:34.092Z,19.96
2019-06-08T23:40:07.634Z,19.93
2019-06-08T23:42:38.965Z,19.92
2019-06-08T23:45:10.859Z,19.90
2019-06-08T23:47:42.081Z,19.90
2019-06-08T23:50:14.453Z,19.87
2019-06-08T23:52:47.557Z,19.85
2019-06-08T23:55:18.393Z,19.83
2019-06-08T23:57:50.395Z,19.81
